Latest Weather Observations for Middle Point

IDD60801

Issued at 5:05 pm CST Saturday 20 September 2014 (issued every 30 minutes, with the page automatically refreshed every 10 minutes)

About weather observations | Map of weather stations | Latest weather observations for NT | Other Formats
Station Details ID: 014041 Name: MIDDLE POINT Lat: -12.61 Lon: 131.30 Height: 14.1 m
Data from the previous 72 hours. | See also: Recent months at Middle Point
Date/Time
CST
Temp
°C
App
Temp
°C
Dew
Point
Rel
Hum
%
Delta-T
°C
Wind Press
QNH
hPa
Press
MSL
hPa
Rain
since 9 am
mm
Dir
 
Spd
km/h
Gust
km/h
Spd
kts
Gust
kts
20/05:00pm 33.9 30.5 11.1 25 13.4 N 20 28 11 15 1009.0 1008.9 0.0
20/04:30pm 34.9 31.7 12.0 25 13.7 NNE 20 28 11 15 1009.0 1008.9 0.0
20/04:00pm 35.2 31.3 12.2 25 13.8 NNE 24 33 13 18 1009.0 1008.9 0.0
20/03:30pm 35.3 31.8 12.3 25 13.8 NNE 22 37 12 20 1009.3 1009.2 0.0
20/03:00pm 35.9 32.8 10.2 21 15.0 N 17 20 9 11 1009.8 1009.7 0.0
20/02:30pm 37.8 31.8 3.5 12 18.2 E 24 39 13 21 1010.3 1010.3 0.0
20/02:00pm 38.1 30.8 2.5 11 18.6 E 30 50 16 27 1011.1 1011.0 0.0
20/01:57pm 38.0 31.1 2.5 11 18.6 ENE 28 50 15 27 1010.9 1010.8 0.0
20/01:30pm 37.5 29.4 3.3 12 18.1 E 35 46 19 25 1011.6 1011.5 0.0
20/01:00pm 37.1 31.0 3.0 12 17.9 ESE 24 30 13 16 1012.3 1012.2 0.0
20/12:30pm 36.3 30.7 5.5 15 16.7 E 24 39 13 21 1013.0 1012.9 0.0
20/12:00pm 35.5 30.2 8.3 19 15.4 E 26 39 14 21 1013.8 1013.7 0.0
20/11:30am 34.5 30.7 9.7 22 14.2 E 20 28 11 15 1014.5 1014.4 0.0
20/11:00am 34.0 31.9 12.4 27 12.9 E 15 22 8 12 1015.0 1014.9 0.0
20/10:30am 31.7 32.0 16.0 38 9.8 SSE 9 19 5 10 1015.5 1015.4 0.0
20/10:00am 30.2 31.4 16.9 44 8.4 E 6 13 3 7 1015.8 1015.7 0.0
20/09:30am 29.0 31.1 19.3 55 6.3 SSW 7 11 4 6 1015.7 1015.6 0.0
20/09:00am 27.3 30.1 19.6 62 5.0 S 4 7 2 4 1015.6 1015.5 0.0
20/08:30am 25.7 27.6 18.9 66 4.3 S 7 9 4 5 1015.3 1015.2 0.0
20/08:00am 23.1 25.6 19.1 78 2.5 SSE 4 6 2 3 1015.2 1015.1 0.0
20/07:30am 19.3 21.9 17.6 90 1.0 CALM 0 0 0 0 1014.9 1014.8 0.0
20/07:00am 17.2 18.9 15.2 88 1.2 CALM 0 0 0 0 1014.5 1014.4 0.0
20/06:30am 17.5 18.3 15.8 90 1.0 ESE 6 6 3 3 1014.2 1014.1 0.0
20/06:00am 17.7 19.7 15.9 89 1.1 CALM 0 0 0 0 1013.7 1013.6 0.0
20/05:30am 18.0 19.6 16.0 88 1.2 NW 2 6 1 3 1013.2 1013.1 0.0
20/05:00am 18.8 21.1 16.8 88 1.2 CALM 0 0 0 0 1013.0 1012.9 0.0
20/04:30am 17.7 18.8 15.7 88 1.2 NW 4 4 2 2 1012.8 1012.7 0.0
20/04:00am 18.0 19.0 15.4 85 1.5 N 4 4 2 2 1013.1 1013.0 0.0
20/03:30am 18.4 20.3 15.8 85 1.5 CALM 0 0 0 0 1013.3 1013.2 0.0
20/03:00am 19.1 21.0 16.7 86 1.4 NNW 2 4 1 2 1013.4 1013.3 0.0
20/02:30am 19.4 20.2 15.9 80 2.1 NNW 6 9 3 5 1013.6 1013.5 0.0
20/02:00am 20.9 22.1 17.3 80 2.2 W 7 9 4 5 1013.9 1013.8 0.0
20/01:30am 20.6 21.7 17.2 81 2.1 NW 7 13 4 7 1014.2 1014.1 0.0
20/01:00am 19.0 19.8 14.9 77 2.4 NW 4 6 2 3 1014.8 1014.7 0.0
20/12:30am 19.9 21.6 15.1 74 2.8 CALM 0 4 0 2 1015.0 1014.9 0.0
20/12:00am 22.2 23.4 16.0 68 3.7 NNE 4 6 2 3 1015.1 1015.0 0.0
 
Date/Time
CST
Temp
°C
App
Temp
°C
Dew
Point
Rel
Hum
%
Delta-T
°C
Wind Press
QNH
hPa
Press
MSL
hPa
Rain
since 9 am
mm
Dir
 
Spd
km/h
Gust
km/h
Spd
kts
Gust
kts
19/11:30pm 22.3 23.4 17.2 73 3.1 NNE 7 9 4 5 1015.3 1015.2 0.0
19/11:00pm 20.9 21.3 15.2 70 3.4 NNE 7 9 4 5 1015.2 1015.1 0.0
19/10:30pm 20.9 21.4 14.1 65 3.9 NNE 4 9 2 5 1015.0 1014.9 0.0
19/10:00pm 22.3 22.4 14.4 61 4.6 N 7 11 4 6 1014.8 1014.7 0.0
19/09:30pm 21.5 21.4 13.4 60 4.7 NNW 6 7 3 4 1014.2 1014.1 0.0
19/09:00pm 22.3 22.3 12.5 53 5.6 NW 4 6 2 3 1013.6 1013.5 0.0
19/08:30pm 23.8 23.9 12.8 50 6.3 NNW 4 7 2 4 1013.4 1013.3 0.0
19/08:00pm 26.5 25.7 12.9 43 7.9 NNW 9 20 5 11 1013.0 1012.9 0.0
19/07:30pm 26.4 25.7 12.1 41 8.2 NNW 7 13 4 7 1012.4 1012.3 0.0
19/07:00pm 27.0 25.6 12.3 40 8.5 WNW 11 15 6 8 1011.8 1011.7 0.0
19/06:30pm 29.9 26.4 10.9 31 10.9 NNE 20 28 11 15 1010.7 1010.7 0.0
19/06:00pm 32.0 28.3 10.1 26 12.5 N 20 28 11 15 1010.2 1010.2 0.0
19/05:30pm 34.5 30.9 8.3 20 14.7 N 17 24 9 13 1009.6 1009.5 0.0
19/05:00pm 35.7 31.9 7.7 18 15.7 N 17 22 9 12 1009.4 1009.3 0.0
19/04:30pm 37.6 33.8 -0.6 9 19.0 ESE 9 24 5 13 1009.2 1009.1 0.0
19/04:00pm 38.7 33.9 0.2 9 19.5 E 15 26 8 14 1009.4 1009.3 0.0
19/03:30pm 38.1 32.5 -0.3 9 19.3 SE 19 26 10 14 1009.7 1009.6 0.0
19/03:00pm 38.7 33.1 0.2 9 19.5 ESE 19 35 10 19 1010.0 1010.0 0.0
19/02:30pm 37.8 30.6 1.0 10 18.8 E 28 37 15 20 1010.5 1010.5 0.0
19/02:00pm 38.5 32.4 2.8 11 18.8 E 24 33 13 18 1011.0 1010.9 0.0
19/01:30pm 38.1 32.3 2.5 11 18.6 ESE 22 37 12 20 1011.6 1011.5 0.0
19/01:00pm 37.9 32.3 3.6 12 18.2 SE 22 32 12 17 1012.0 1011.9 0.0
19/12:30pm 36.5 32.5 4.7 14 17.1 ESE 15 22 8 12 1012.9 1012.8 0.0
19/12:00pm 36.2 32.9 6.4 16 16.4 ESE 13 22 7 12 1013.6 1013.5 0.0
19/11:30am 35.1 30.7 6.4 17 15.7 E 19 28 10 15 1014.3 1014.2 0.0
19/11:00am 33.2 31.4 9.3 23 13.6 SSE 9 19 5 10 1015.2 1015.1 0.0
19/10:30am 32.3 30.8 12.0 29 12.0 SSE 11 19 6 10 1015.6 1015.5 0.0
19/10:00am 30.2 30.7 15.1 40 9.3 E 6 9 3 5 1015.9 1015.8 0.0
19/09:30am 29.3 30.4 16.5 46 8.0 ESE 6 9 3 5 1016.1 1016.0 0.0
19/09:00am 28.0 31.5 19.5 60 5.5 CALM 0 4 0 2 1016.0 1015.9 0.0
19/08:30am 25.4 28.1 19.5 70 3.8 SSE 4 7 2 4 1016.0 1015.9 0.0
19/08:00am 22.6 25.6 19.2 81 2.2 SSE 2 4 1 2 1015.8 1015.7 0.0
19/07:30am 18.3 20.9 17.5 95 0.5 CALM 0 0 0 0 1015.5 1015.4 0.0
19/07:00am 15.1 16.3 13.8 92 0.7 CALM 0 0 0 0 1015.0 1014.9 0.0
19/06:30am 14.9 15.9 13.1 89 1.0 CALM 0 0 0 0 1014.6 1014.5 0.0
19/06:00am 16.6 18.2 15.0 90 0.9 CALM 0 0 0 0 1014.5 1014.4 0.0
19/05:30am 16.3 17.6 14.1 87 1.2 CALM 0 6 0 3 1014.1 1014.0 0.0
19/05:00am 16.9 17.4 14.9 88 1.2 S 6 7 3 4 1013.8 1013.7 0.0
19/04:30am 17.4 18.3 15.2 87 1.3 SSW 4 7 2 4 1013.7 1013.6 0.0
19/04:00am 17.6 19.5 15.8 89 1.1 CALM 0 0 0 0 1013.6 1013.5 0.0
19/03:30am 17.9 19.9 15.9 88 1.2 CALM 0 0 0 0 1013.6 1013.5 0.0
19/03:00am 17.2 17.8 15.4 89 1.1 NNW 6 9 3 5 1013.7 1013.6 0.0
19/02:30am 17.4 18.9 14.7 84 1.6 CALM 0 0 0 0 1013.8 1013.7 0.0
19/02:00am 18.2 19.9 15.3 83 1.7 CALM 0 0 0 0 1013.9 1013.8 0.0
19/01:30am 18.8 20.5 15.3 80 2.1 CALM 0 0 0 0 1014.2 1014.1 0.0
19/01:00am 18.9 20.7 15.4 80 2.1 CALM 0 0 0 0 1014.5 1014.4 0.0
19/12:30am 19.8 21.8 15.9 78 2.3 CALM 0 0 0 0 1015.0 1014.9 0.0
19/12:00am 19.4 21.3 15.7 79 2.2 CALM 0 0 0 0 1015.3 1015.2 0.0
 
Date/Time
CST
Temp
°C
App
Temp
°C
Dew
Point
Rel
Hum
%
Delta-T
°C
Wind Press
QNH
hPa
Press
MSL
hPa
Rain
since 9 am
mm
Dir
 
Spd
km/h
Gust
km/h
Spd
kts
Gust
kts
18/11:30pm 20.5 22.5 15.9 75 2.7 CALM 0 4 0 2 1015.5 1015.4 0.0
18/11:00pm 21.0 22.7 15.3 70 3.4 CALM 0 0 0 0 1015.3 1015.2 0.0
18/10:30pm 22.0 23.9 15.8 68 3.7 CALM 0 0 0 0 1015.1 1015.0 0.0
18/10:00pm 22.8 24.6 16.4 67 3.9 W 2 2 1 1 1014.7 1014.6 0.0
18/09:30pm 22.7 23.2 15.0 61 4.6 WSW 6 9 3 5 1014.4 1014.3 0.0
18/09:00pm 23.2 23.8 15.3 61 4.7 W 6 7 3 4 1014.0 1013.9 0.0
18/08:30pm 23.8 24.4 15.3 59 5.1 WNW 6 7 3 4 1013.7 1013.6 0.0
18/08:00pm 24.5 24.7 14.6 54 5.9 NW 7 9 4 5 1013.2 1013.1 0.0
18/07:30pm 25.6 25.9 15.0 52 6.4 NNW 7 9 4 5 1012.8 1012.7 0.0
18/07:00pm 27.1 26.9 14.8 47 7.4 NNW 9 11 5 6 1012.3 1012.2 0.0
18/06:30pm 29.3 27.4 14.3 40 9.1 N 17 24 9 13 1011.9 1011.8 0.0
18/06:00pm 31.0 27.4 14.2 36 10.2 N 26 35 14 19 1011.1 1011.0 0.0
18/05:39pm 32.7 26.7 10.7 26 12.7 N 33 43 18 23 1010.4 1010.4 0.0
18/05:30pm 34.7 32.6 9.9 22 14.3 NE 11 19 6 10 1010.2 1010.2 0.0
18/05:00pm 36.8 32.2 3.9 13 17.5 ESE 17 24 9 13 1010.0 1010.0 0.0
18/04:30pm 36.8 31.7 3.9 13 17.5 SE 20 30 11 16 1010.1 1010.1 0.0
18/04:00pm 37.0 31.5 4.0 13 17.6 ESE 22 33 12 18 1010.4 1010.4 0.0
18/03:30pm 37.5 32.5 4.4 13 17.8 ESE 20 28 11 15 1010.7 1010.7 0.0
18/03:00pm 37.2 31.5 3.1 12 17.9 ESE 22 32 12 17 1011.3 1011.2 0.0
18/02:30pm 37.9 32.7 3.6 12 18.3 SE 20 30 11 16 1011.7 1011.6 0.0
18/02:00pm 37.3 30.3 4.3 13 17.7 E 30 39 16 21 1012.3 1012.2 0.0
18/01:30pm 36.2 31.6 5.5 15 16.7 ESE 19 32 10 17 1013.0 1012.9 0.0
18/01:00pm 36.1 31.8 8.0 18 15.8 ESE 20 32 11 17 1013.8 1013.7 0.0
18/12:30pm 35.2 31.0 9.6 21 14.7 E 22 33 12 18 1014.5 1014.4 0.0
18/12:00pm 34.2 31.0 10.1 23 13.9 E 17 30 9 16 1015.3 1015.2 0.0
18/11:30am 34.3 31.9 11.4 25 13.5 ESE 15 28 8 15 1015.9 1015.8 0.0
18/11:00am 32.4 30.9 14.1 33 11.1 SE 15 26 8 14 1016.3 1016.2 0.0
18/10:30am 31.4 32.1 16.2 40 9.5 SE 7 13 4 7 1016.6 1016.5 0.0
18/10:00am 29.9 30.3 16.3 43 8.5 S 9 19 5 10 1016.7 1016.6 0.0
18/09:30am 28.4 29.9 17.6 52 6.8 SE 6 11 3 6 1016.7 1016.6 0.0
18/09:00am 27.9 30.4 19.1 58 5.7 SSE 4 7 2 4 1016.7 1016.6 0.0
18/08:30am 25.4 28.6 20.4 74 3.3 S 4 4 2 2 1016.5 1016.4 0.0
18/08:00am 23.0 27.1 20.7 87 1.5 CALM 0 0 0 0 1016.2 1016.1 0.0
18/07:30am 20.3 23.8 19.5 95 0.5 CALM 0 2 0 1 1015.9 1015.8 0.0
18/07:00am 17.2 19.3 16.2 94 0.6 CALM 0 0 0 0 1015.5 1015.4 0.0
18/06:30am 16.7 18.5 15.6 93 0.6 CALM 0 0 0 0 1014.9 1014.8 0.0
18/06:00am 17.1 19.0 15.8 92 0.8 CALM 0 0 0 0 1014.5 1014.4 0.0
18/05:30am 17.5 19.6 16.2 92 0.8 CALM 0 0 0 0 1014.3 1014.2 0.0
18/05:00am 17.5 19.4 15.7 89 1.1 CALM 0 0 0 0 1014.2 1014.1 0.0
18/04:30am 18.2 20.3 16.2 88 1.2 CALM 0 2 0 1 1014.1 1014.0 0.0
18/04:00am 18.7 21.0 16.7 88 1.2 CALM 0 0 0 0 1014.0 1013.9 0.0
18/03:30am 18.8 21.1 16.8 88 1.2 CALM 0 2 0 1 1014.0 1013.9 0.0
18/03:00am 19.4 21.9 17.2 87 1.3 CALM 0 0 0 0 1014.0 1013.9 0.0
18/02:30am 20.6 23.5 18.2 86 1.5 CALM 0 0 0 0 1014.3 1014.2 0.0
18/02:00am 20.8 23.8 18.4 86 1.5 CALM 0 0 0 0 1014.5 1014.4 0.0
18/01:30am 20.8 23.2 18.0 84 1.7 N 2 2 1 1 1014.7 1014.6 0.0
18/01:00am 21.1 23.1 17.9 82 2.0 N 4 4 2 2 1015.2 1015.1 0.0
18/12:30am 22.8 25.6 19.6 82 2.0 N 4 6 2 3 1015.5 1015.4 0.0
18/12:00am 22.8 24.9 19.4 81 2.2 N 7 7 4 4 1015.6 1015.5 0.0
 
Date/Time
CST
Temp
°C
App
Temp
°C
Dew
Point
Rel
Hum
%
Delta-T
°C
Wind Press
QNH
hPa
Press
MSL
hPa
Rain
since 9 am
mm
Dir
 
Spd
km/h
Gust
km/h
Spd
kts
Gust
kts
17/11:30pm 23.7 26.0 19.8 79 2.5 N 7 11 4 6 1015.6 1015.5 0.0
17/11:00pm 24.2 26.1 20.5 80 2.4 N 11 13 6 7 1015.3 1015.2 0.0
17/10:30pm 23.2 25.6 20.0 82 2.1 N 7 9 4 5 1014.9 1014.8 0.0
17/10:00pm 23.5 25.6 19.4 78 2.6 N 7 7 4 4 1014.8 1014.7 0.0
17/09:30pm 24.1 26.7 19.2 74 3.1 N 4 6 2 3 1014.6 1014.5 0.0
17/09:00pm 24.7 26.6 18.6 69 3.9 N 6 7 3 4 1014.1 1014.0 0.0
17/08:30pm 25.1 26.4 17.6 63 4.7 N 7 9 4 5 1013.7 1013.6 0.0
17/08:00pm 26.6 26.9 17.1 56 5.9 N 11 15 6 8 1013.1 1013.0 0.0
17/07:30pm 27.8 27.0 16.1 49 7.2 N 15 20 8 11 1012.3 1012.2 0.0
17/07:00pm 27.7 27.5 15.7 48 7.4 N 11 17 6 9 1011.7 1011.6 0.0
17/06:30pm 29.9 28.9 15.6 42 8.8 N 15 28 8 15 1010.7 1010.7 0.0
17/06:00pm 32.6 31.9 13.3 31 11.6 N 9 11 5 6 1010.1 1010.1 0.0
17/05:30pm 33.5 32.1 13.5 29 12.1 N 13 15 7 8 1009.8 1009.7 0.0

Other Formats:

Comma delimited format used in spreadsheet applications
http://www.bom.gov.au/fwo/IDD60801/IDD60801.95121.axf

JavaScript Object Notation format (JSON) in row-major order
http://www.bom.gov.au/fwo/IDD60801/IDD60801.95121.json